createdAt,value
2022-10-05T00:00:49.657Z,5.25
2022-10-05T00:03:16.828Z,6.47
2022-10-05T00:05:45.591Z,6.68
2022-10-05T00:08:19.079Z,4.03
2022-10-05T00:10:46.955Z,7.57
2022-10-05T00:13:29.111Z,4.72
2022-10-05T00:16:20.902Z,6.93
2022-10-05T00:18:53.164Z,3.70
2022-10-05T00:21:21.634Z,5.45
2022-10-05T00:23:49.071Z,5.25
2022-10-05T00:26:22.463Z,4.70
2022-10-05T00:28:49.955Z,9.10
2022-10-05T00:31:23.138Z,7.10
2022-10-05T00:33:50.954Z,3.17
2022-10-05T00:36:18.026Z,3.88
2022-10-05T00:38:45.789Z,4.72
2022-10-05T00:41:29.913Z,4.95
2022-10-05T00:47:11.712Z,5.13
2022-10-05T00:50:06.162Z,3.35
2022-10-05T00:53:09.358Z,3.40
2022-10-05T00:55:48.158Z,3.42
2022-10-05T00:58:23.459Z,4.95
2022-10-05T01:01:15.197Z,3.50
2022-10-05T01:04:06.254Z,4.57
2022-10-05T01:06:57.584Z,2.75
2022-10-05T01:09:45.208Z,3.50
2022-10-05T01:12:36.498Z,3.85
2022-10-05T01:15:11.112Z,5.50
2022-10-05T01:17:44.857Z,4.97
2022-10-05T01:20:39.663Z,6.50
2022-10-05T01:23:30.937Z,2.60
2022-10-05T01:25:57.841Z,5.50
2022-10-05T01:28:31.049Z,4.63
2022-10-05T01:31:08.917Z,5.10
2022-10-05T01:33:48.643Z,7.85
2022-10-05T01:36:29.877Z,4.43
2022-10-05T01:39:40.849Z,4.35
2022-10-05T01:42:25.623Z,3.65
2022-10-05T01:45:29.504Z,3.75
2022-10-05T01:48:29.800Z,3.00
2022-10-05T01:51:14.355Z,3.00
2022-10-05T01:54:05.469Z,5.40
2022-10-05T01:56:45.685Z,3.55
2022-10-05T01:59:16.378Z,5.25
2022-10-05T02:02:12.382Z,4.72
2022-10-05T02:05:03.092Z,5.03
2022-10-05T02:08:00.776Z,4.32
2022-10-05T02:10:35.182Z,3.45
2022-10-05T02:13:36.651Z,7.70
2022-10-05T02:16:10.653Z,4.45
2022-10-05T02:19:09.219Z,4.30
2022-10-05T02:21:36.963Z,3.28
2022-10-05T02:24:10.017Z,5.68
2022-10-05T02:26:38.975Z,3.85
2022-10-05T02:29:13.683Z,5.55
2022-10-05T02:32:00.222Z,6.25
2022-10-05T02:34:39.612Z,4.45
2022-10-05T02:37:17.232Z,4.63
2022-10-05T02:40:14.040Z,3.90
2022-10-05T02:42:49.106Z,4.28
2022-10-05T02:45:19.147Z,5.90
2022-10-05T02:47:56.157Z,4.28
2022-10-05T02:50:44.870Z,4.75
2022-10-05T02:53:29.512Z,5.40
2022-10-05T02:56:11.440Z,5.32
2022-10-05T02:59:22.535Z,5.90
2022-10-05T03:01:54.534Z,6.20
2022-10-05T03:04:37.470Z,5.30
2022-10-05T03:07:19.977Z,4.90
2022-10-05T03:10:11.601Z,5.80
2022-10-05T03:13:00.149Z,4.93
2022-10-05T03:15:48.913Z,4.53
2022-10-05T03:18:40.083Z,4.68
2022-10-05T03:21:27.016Z,4.72
2022-10-05T03:24:23.820Z,5.65
2022-10-05T03:26:50.757Z,6.00
2022-10-05T03:29:20.530Z,4.25
2022-10-05T03:32:05.310Z,5.28
2022-10-05T03:34:39.424Z,6.90
2022-10-05T03:37:21.839Z,4.88
2022-10-05T03:40:01.792Z,6.35
2022-10-05T03:42:38.476Z,4.75
2022-10-05T03:45:23.777Z,5.15
2022-10-05T03:48:11.534Z,5.35
2022-10-05T03:51:06.374Z,7.03
2022-10-05T03:53:48.051Z,5.35
2022-10-05T03:56:25.390Z,3.80
2022-10-05T03:59:08.911Z,4.90
2022-10-05T04:01:45.799Z,5.97
2022-10-05T04:04:31.204Z,3.80
2022-10-05T04:07:00.089Z,4.72
2022-10-05T04:09:47.867Z,4.55
2022-10-05T04:12:44.056Z,4.05
2022-10-05T04:15:33.767Z,4.35
2022-10-05T04:18:06.119Z,4.63
2022-10-05T04:20:44.475Z,5.35
2022-10-05T04:23:46.232Z,6.38
2022-10-05T04:26:23.067Z,5.20
2022-10-05T04:29:19.652Z,4.05
2022-10-05T04:31:50.076Z,5.85
2022-10-05T04:34:48.088Z,4.93
2022-10-05T04:37:33.905Z,5.50
2022-10-05T04:40:21.414Z,7.97
2022-10-05T04:43:33.651Z,8.07
2022-10-05T04:46:12.840Z,5.97
2022-10-05T04:49:07.866Z,6.15
2022-10-05T04:51:54.694Z,5.95
2022-10-05T04:55:00.688Z,6.10
2022-10-05T04:57:46.186Z,8.02
2022-10-05T05:00:39.808Z,4.57
2022-10-05T05:03:18.724Z,8.05
2022-10-05T05:06:17.178Z,10.27
2022-10-05T05:09:11.904Z,5.00
2022-10-05T05:12:09.755Z,6.68
2022-10-05T05:15:09.529Z,7.75
2022-10-05T05:17:45.153Z,11.23
2022-10-05T05:20:43.280Z,6.85
2022-10-05T05:23:24.307Z,7.10
2022-10-05T05:26:10.435Z,7.57
2022-10-05T05:28:56.687Z,8.73
2022-10-05T05:32:04.915Z,7.10
2022-10-05T05:34:48.320Z,9.63
2022-10-05T05:37:54.793Z,7.38
2022-10-05T05:40:33.554Z,6.25
2022-10-05T05:43:26.410Z,9.18
2022-10-05T05:46:38.804Z,7.47
2022-10-05T05:49:27.851Z,11.02
2022-10-05T05:52:06.103Z,6.27
2022-10-05T05:54:47.099Z,7.63
2022-10-05T05:57:23.108Z,6.85
2022-10-05T06:00:08.710Z,9.27
2022-10-05T06:02:55.655Z,10.27
2022-10-05T06:05:39.340Z,10.95
2022-10-05T06:08:21.056Z,7.68
2022-10-05T06:11:20.964Z,6.15
2022-10-05T06:13:48.895Z,6.35
2022-10-05T06:16:38.916Z,7.32
2022-10-05T06:19:14.601Z,6.75
2022-10-05T06:22:12.470Z,8.25
2022-10-05T06:24:57.644Z,7.13
2022-10-05T06:27:35.520Z,7.90
2022-10-05T06:30:16.136Z,7.13
2022-10-05T06:35:49.458Z,11.48
2022-10-05T06:38:43.178Z,8.77
2022-10-05T06:41:24.072Z,8.18
2022-10-05T06:43:58.847Z,13.07
2022-10-05T06:46:58.032Z,7.45
2022-10-05T06:50:29.998Z,10.52
2022-10-05T06:53:49.141Z,9.63
2022-10-05T06:56:35.568Z,7.18
2022-10-05T06:59:16.634Z,8.90
2022-10-05T07:02:09.709Z,8.23
2022-10-05T07:04:54.832Z,8.07
2022-10-05T07:07:46.419Z,9.05
2022-10-05T07:10:22.163Z,11.40
2022-10-05T07:12:55.860Z,10.07
2022-10-05T07:15:41.805Z,10.15
2022-10-05T07:18:49.058Z,12.68
2022-10-05T07:21:21.451Z,14.07
2022-10-05T07:24:25.022Z,10.63
2022-10-05T07:27:08.001Z,10.98
2022-10-05T07:30:07.245Z,10.20
2022-10-05T07:32:43.522Z,10.48
2022-10-05T07:35:38.225Z,8.55
2022-10-05T07:38:33.051Z,11.77
2022-10-05T07:41:31.267Z,11.55
2022-10-05T07:44:13.213Z,13.02
2022-10-05T07:46:43.622Z,11.50
2022-10-05T07:49:16.359Z,12.45
2022-10-05T07:51:51.100Z,9.80
2022-10-05T07:54:41.836Z,8.82
2022-10-05T07:57:29.977Z,8.75
2022-10-05T08:00:01.235Z,8.32
2022-10-05T08:02:44.547Z,11.48
2022-10-05T08:05:20.503Z,10.82
2022-10-05T08:07:52.306Z,11.05
2022-10-05T08:10:19.314Z,8.95
2022-10-05T08:12:51.805Z,9.25
2022-10-05T08:15:23.704Z,7.97
2022-10-05T08:18:00.569Z,8.00
2022-10-05T08:20:38.726Z,8.80
2022-10-05T08:23:26.015Z,10.70
2022-10-05T08:26:00.461Z,6.13
2022-10-05T08:28:47.090Z,7.65
2022-10-05T08:31:22.940Z,7.35
2022-10-05T08:33:49.955Z,6.95
2022-10-05T08:36:24.145Z,6.38
2022-10-05T08:38:55.297Z,6.53
2022-10-05T08:41:46.779Z,5.75
2022-10-05T08:44:45.618Z,7.45
2022-10-05T08:47:45.622Z,7.47
2022-10-05T08:50:31.711Z,6.82
2022-10-05T08:53:23.143Z,19.20
2022-10-05T08:55:50.066Z,6.32
2022-10-05T08:58:47.623Z,6.32
2022-10-05T09:01:20.404Z,8.18
2022-10-05T09:04:14.476Z,8.10
2022-10-05T09:07:19.360Z,5.50
2022-10-05T09:12:37.855Z,7.30
2022-10-05T09:15:32.033Z,7.23
2022-10-05T09:18:16.944Z,7.43
2022-10-05T09:20:55.230Z,9.13
2022-10-05T09:23:31.027Z,10.30
2022-10-05T09:26:07.203Z,6.75
2022-10-05T09:28:59.661Z,8.07
2022-10-05T09:32:05.383Z,13.35
2022-10-05T09:35:13.932Z,6.50
2022-10-05T09:37:58.532Z,6.88
2022-10-05T09:40:56.095Z,5.43
2022-10-05T09:43:26.061Z,6.50
2022-10-05T09:46:19.358Z,9.70
2022-10-05T09:49:18.399Z,8.80
2022-10-05T09:52:22.103Z,7.85
2022-10-05T09:55:24.008Z,6.57
2022-10-05T09:58:29.543Z,7.20
2022-10-05T10:01:36.370Z,7.82
2022-10-05T10:04:10.291Z,5.90
2022-10-05T10:07:24.891Z,7.05
2022-10-05T10:10:15.599Z,3.85
2022-10-05T10:12:56.938Z,4.57
2022-10-05T10:15:52.610Z,8.60
2022-10-05T10:18:56.334Z,9.15
2022-10-05T10:21:34.846Z,10.55
2022-10-05T10:24:23.720Z,6.13
2022-10-05T10:27:08.618Z,5.07
2022-10-05T10:30:10.937Z,7.95
2022-10-05T10:33:02.160Z,4.15
2022-10-05T10:36:06.154Z,5.60
2022-10-05T10:38:41.795Z,9.77
2022-10-05T10:41:27.958Z,5.05
2022-10-05T10:44:14.032Z,8.93
2022-10-05T10:47:01.817Z,5.80
2022-10-05T10:49:46.800Z,4.40
2022-10-05T10:52:55.607Z,4.88
2022-10-05T10:55:47.152Z,5.00
2022-10-05T10:58:50.832Z,4.60
2022-10-05T11:01:28.683Z,5.40
2022-10-05T11:04:14.160Z,6.25
2022-10-05T11:07:02.423Z,3.85
2022-10-05T11:10:00.516Z,4.25
2022-10-05T11:13:13.320Z,5.80
2022-10-05T11:16:21.790Z,6.50
2022-10-05T11:19:35.140Z,5.35
2022-10-05T11:22:30.938Z,6.90
2022-10-05T11:25:25.512Z,4.45
2022-10-05T11:28:28.673Z,7.43
2022-10-05T11:31:19.769Z,6.03
2022-10-05T11:34:15.791Z,4.90
2022-10-05T11:37:13.116Z,5.75
2022-10-05T11:40:07.484Z,5.15
2022-10-05T11:45:26.049Z,5.40
2022-10-05T11:48:20.579Z,6.55
2022-10-05T11:51:24.052Z,7.03
2022-10-05T11:54:09.754Z,9.63
2022-10-05T11:56:58.708Z,9.88
2022-10-05T11:59:52.034Z,5.78
2022-10-05T12:02:48.053Z,7.07
2022-10-05T12:05:39.748Z,7.10
2022-10-05T12:08:33.816Z,5.95
2022-10-05T12:11:38.249Z,7.30
2022-10-05T12:14:11.121Z,9.65
2022-10-05T12:16:58.946Z,6.90
2022-10-05T12:19:36.859Z,5.18
2022-10-05T12:22:17.835Z,8.88
2022-10-05T12:25:04.004Z,5.35
2022-10-05T12:27:41.093Z,4.82
2022-10-05T12:30:35.632Z,6.32
2022-10-05T12:33:15.417Z,6.32
2022-10-05T12:35:48.722Z,7.50
2022-10-05T12:41:18.516Z,7.75
2022-10-05T12:43:51.144Z,5.50
2022-10-05T12:46:30.833Z,6.63
2022-10-05T12:49:21.904Z,4.60
2022-10-05T12:51:48.942Z,7.93
2022-10-05T12:54:24.877Z,8.73
2022-10-05T12:57:19.579Z,5.63
2022-10-05T13:00:08.509Z,6.40
2022-10-05T13:02:43.970Z,5.95
2022-10-05T13:05:10.905Z,5.65
2022-10-05T13:07:56.276Z,6.97
2022-10-05T13:10:39.237Z,7.95
2022-10-05T13:13:06.201Z,6.25
2022-10-05T13:15:47.182Z,6.80
2022-10-05T13:18:41.878Z,4.65
2022-10-05T13:21:14.068Z,3.95
2022-10-05T13:24:02.848Z,7.20
2022-10-05T13:26:44.366Z,4.90
2022-10-05T13:29:36.302Z,6.93
2022-10-05T13:32:12.790Z,7.53
2022-10-05T13:34:48.338Z,4.82
2022-10-05T13:37:18.098Z,5.25
2022-10-05T13:39:56.684Z,6.00
2022-10-05T13:42:36.486Z,11.63
2022-10-05T13:45:21.480Z,7.90
2022-10-05T13:47:54.361Z,6.00
2022-10-05T13:50:31.189Z,5.57
2022-10-05T13:53:21.497Z,6.72
2022-10-05T13:56:07.363Z,6.10
2022-10-05T13:58:45.010Z,8.65
2022-10-05T14:01:22.447Z,4.53
2022-10-05T14:04:20.515Z,4.95
2022-10-05T14:06:48.573Z,4.40
2022-10-05T14:09:31.551Z,5.43
2022-10-05T14:12:04.656Z,5.72
2022-10-05T14:14:42.173Z,5.85
2022-10-05T14:17:36.705Z,7.43
2022-10-05T14:20:19.106Z,7.50
2022-10-05T14:22:52.763Z,7.68
2022-10-05T14:28:10.371Z,8.98
2022-10-05T14:30:37.798Z,6.15
2022-10-05T14:33:04.913Z,7.50
2022-10-05T14:35:51.611Z,5.50
2022-10-05T14:38:30.149Z,6.95
2022-10-05T14:41:07.776Z,5.15
2022-10-05T14:43:35.474Z,7.28
2022-10-05T14:46:24.985Z,7.35
2022-10-05T14:49:13.639Z,6.80
2022-10-05T14:51:42.309Z,6.03
2022-10-05T14:54:46.882Z,6.22
2022-10-05T15:00:13.469Z,6.78
2022-10-05T15:02:49.249Z,6.55
2022-10-05T15:05:24.816Z,5.63
2022-10-05T15:07:57.306Z,6.35
2022-10-05T15:10:49.796Z,7.88
2022-10-05T15:13:20.424Z,5.38
2022-10-05T15:16:14.665Z,8.48
2022-10-05T15:21:42.305Z,7.28
2022-10-05T15:24:17.469Z,8.37
2022-10-05T15:26:51.775Z,5.95
2022-10-05T15:29:38.232Z,9.02
2022-10-05T15:32:30.961Z,8.55
2022-10-05T15:35:14.132Z,10.10
2022-10-05T15:37:55.060Z,5.40
2022-10-05T15:41:12.663Z,10.60
2022-10-05T15:44:14.441Z,6.45
2022-10-05T15:46:56.521Z,6.38
2022-10-05T15:49:37.050Z,9.45
2022-10-05T15:52:26.338Z,11.07
2022-10-05T15:55:23.265Z,8.77
2022-10-05T15:58:11.001Z,6.57
2022-10-05T16:00:48.817Z,6.82
2022-10-05T16:03:30.116Z,10.02
2022-10-05T16:06:21.138Z,10.35
2022-10-05T16:09:23.280Z,7.43
2022-10-05T16:12:09.753Z,7.07
2022-10-05T16:14:57.364Z,5.88
2022-10-05T16:17:55.602Z,5.30
2022-10-05T16:20:53.114Z,10.38
2022-10-05T16:23:55.283Z,5.13
2022-10-05T16:26:32.704Z,9.32
2022-10-05T16:29:10.464Z,10.70
2022-10-05T16:31:58.802Z,9.65
2022-10-05T16:34:28.822Z,6.93
2022-10-05T16:37:02.806Z,5.93
2022-10-05T16:39:59.671Z,9.15
2022-10-05T16:42:30.028Z,7.20
2022-10-05T16:45:09.473Z,7.18
2022-10-05T16:48:05.239Z,8.50
2022-10-05T16:50:41.093Z,9.65
2022-10-05T16:53:13.671Z,6.72
2022-10-05T16:55:48.732Z,7.43
2022-10-05T16:58:25.610Z,8.05
2022-10-05T17:00:58.720Z,6.60
2022-10-05T17:03:49.606Z,8.37
2022-10-05T17:06:40.530Z,5.57
2022-10-05T17:09:35.052Z,9.52
2022-10-05T17:12:07.807Z,6.95
2022-10-05T17:15:06.691Z,7.30
2022-10-05T17:17:49.036Z,7.53
2022-10-05T17:20:23.840Z,6.35
2022-10-05T17:22:55.695Z,7.75
2022-10-05T17:25:39.040Z,9.75
2022-10-05T17:28:15.129Z,10.75
2022-10-05T17:31:32.845Z,7.28
2022-10-05T17:33:59.842Z,7.55
2022-10-05T17:36:48.674Z,6.85
2022-10-05T17:39:21.691Z,8.40
2022-10-05T17:41:49.642Z,6.77
2022-10-05T17:44:24.412Z,7.97
2022-10-05T17:46:52.855Z,7.90
2022-10-05T17:49:38.083Z,7.47
2022-10-05T17:52:45.280Z,7.15
2022-10-05T17:55:35.985Z,7.35
2022-10-05T17:58:27.616Z,3.58
2022-10-05T18:00:57.819Z,4.70
2022-10-05T18:03:51.951Z,3.17
2022-10-05T18:06:37.664Z,3.92
2022-10-05T18:09:34.891Z,2.30
2022-10-05T18:12:07.717Z,1.65
2022-10-05T18:15:07.788Z,2.67
2022-10-05T18:17:54.798Z,3.67
2022-10-05T18:20:26.486Z,5.10
2022-10-05T18:23:23.104Z,5.53
2022-10-05T18:25:56.100Z,6.00
2022-10-05T18:28:39.263Z,4.23
2022-10-05T18:31:22.295Z,6.57
2022-10-05T18:34:15.463Z,7.47
2022-10-05T18:37:09.964Z,4.43
2022-10-05T18:39:47.463Z,7.35
2022-10-05T18:42:38.541Z,6.28
2022-10-05T18:45:23.476Z,9.43
2022-10-05T18:47:59.393Z,6.47
2022-10-05T18:50:38.376Z,11.25
2022-10-05T18:53:08.117Z,11.43
2022-10-05T18:55:53.313Z,8.13
2022-10-05T18:58:27.017Z,11.43
2022-10-05T19:01:09.101Z,10.80
2022-10-05T19:03:55.181Z,10.20
2022-10-05T19:06:41.355Z,12.50
2022-10-05T19:09:38.636Z,13.38
2022-10-05T19:12:40.637Z,11.50
2022-10-05T19:15:19.354Z,11.43
2022-10-05T19:17:51.900Z,11.57
2022-10-05T19:20:34.415Z,14.35
2022-10-05T19:23:14.094Z,11.85
2022-10-05T19:26:03.288Z,15.48
2022-10-05T19:28:56.940Z,10.98
2022-10-05T19:31:44.334Z,10.07
2022-10-05T19:34:35.435Z,14.40
2022-10-05T19:37:22.290Z,12.82
2022-10-05T19:39:54.743Z,14.02
2022-10-05T19:42:41.257Z,13.30
2022-10-05T19:45:18.782Z,15.52
2022-10-05T19:47:54.295Z,12.50
2022-10-05T19:50:30.152Z,25.40
2022-10-05T19:53:04.246Z,22.48
2022-10-05T19:55:39.671Z,16.20
2022-10-05T19:58:25.088Z,15.23
2022-10-05T20:01:11.334Z,20.15
2022-10-05T20:03:38.567Z,20.27
2022-10-05T20:06:08.100Z,17.48
2022-10-05T20:08:46.729Z,16.08
2022-10-05T20:11:27.269Z,19.50
2022-10-05T20:13:55.111Z,18.60
2022-10-05T20:16:51.704Z,14.93
2022-10-05T20:19:52.432Z,19.23
2022-10-05T20:22:48.423Z,16.92
2022-10-05T20:25:18.334Z,16.20
2022-10-05T20:27:46.738Z,15.05
2022-10-05T20:30:25.277Z,17.50
2022-10-05T20:32:57.647Z,19.73
2022-10-05T20:35:27.919Z,13.85
2022-10-05T20:38:00.067Z,15.80
2022-10-05T20:40:29.229Z,18.15
2022-10-05T20:42:57.625Z,25.85
2022-10-05T20:45:24.688Z,16.52
2022-10-05T20:47:51.724Z,22.48
2022-10-05T20:50:19.659Z,16.10
2022-10-05T20:52:47.016Z,18.85
2022-10-05T20:55:14.139Z,21.63
2022-10-05T20:57:45.731Z,17.75
2022-10-05T21:00:13.763Z,17.05
2022-10-05T21:02:40.945Z,16.60
2022-10-05T21:05:08.564Z,12.98
2022-10-05T21:07:35.572Z,23.58
2022-10-05T21:10:03.816Z,17.38
2022-10-05T21:12:30.974Z,14.60
2022-10-05T21:14:59.939Z,19.60
2022-10-05T21:17:26.834Z,24.27
2022-10-05T21:19:53.895Z,25.05
2022-10-05T21:22:20.868Z,20.70
2022-10-05T21:24:47.939Z,17.70
2022-10-05T21:27:15.185Z,18.40
2022-10-05T21:29:44.090Z,19.45
2022-10-05T21:32:11.901Z,19.67
2022-10-05T21:34:40.501Z,20.63
2022-10-05T21:37:08.302Z,14.80
2022-10-05T21:39:36.545Z,21.27
2022-10-05T21:42:03.852Z,19.00
2022-10-05T21:44:30.882Z,16.42
2022-10-05T21:46:57.867Z,18.05
2022-10-05T21:49:25.590Z,18.27
2022-10-05T21:51:52.712Z,19.02
2022-10-05T21:54:22.359Z,18.67
2022-10-05T21:56:54.304Z,16.85
2022-10-05T21:59:26.333Z,15.05
2022-10-05T22:01:53.483Z,17.42
2022-10-05T22:04:20.406Z,13.80
2022-10-05T22:06:48.307Z,16.90
2022-10-05T22:09:15.219Z,18.45
2022-10-05T22:11:42.265Z,16.35
2022-10-05T22:14:09.251Z,17.98
2022-10-05T22:16:38.624Z,16.02
2022-10-05T22:19:10.539Z,18.63
2022-10-05T22:21:41.562Z,16.42
2022-10-05T22:24:09.409Z,18.33
2022-10-05T22:26:36.456Z,14.38
2022-10-05T22:29:03.900Z,17.13
2022-10-05T22:31:30.920Z,17.25
2022-10-05T22:33:58.039Z,11.82
2022-10-05T22:36:25.052Z,19.42
2022-10-05T22:38:52.057Z,13.23
2022-10-05T22:41:19.043Z,14.68
2022-10-05T22:43:50.062Z,20.67
2022-10-05T22:46:17.492Z,14.50
2022-10-05T22:48:44.912Z,14.80
2022-10-05T22:51:12.116Z,15.55
2022-10-05T22:53:39.083Z,13.18
2022-10-05T22:56:08.331Z,18.80
2022-10-05T22:58:36.276Z,11.82
2022-10-05T23:01:06.507Z,13.43
2022-10-05T23:03:34.525Z,13.38
2022-10-05T23:06:06.895Z,17.08
2022-10-05T23:08:36.224Z,19.77
2022-10-05T23:11:11.733Z,20.85
2022-10-05T23:13:39.490Z,15.82
2022-10-05T23:16:08.603Z,14.32
2022-10-05T23:18:35.929Z,14.95
2022-10-05T23:21:03.243Z,12.15
2022-10-05T23:23:30.233Z,23.30
2022-10-05T23:26:01.360Z,20.40
2022-10-05T23:28:31.031Z,16.70
2022-10-05T23:31:02.922Z,16.95
2022-10-05T23:33:29.919Z,19.27
2022-10-05T23:36:08.526Z,17.23
2022-10-05T23:38:36.399Z,21.70
2022-10-05T23:41:04.274Z,17.75
2022-10-05T23:43:33.404Z,17.50
2022-10-05T23:46:00.967Z,16.27
2022-10-05T23:48:28.519Z,14.82
2022-10-05T23:50:56.010Z,15.60
2022-10-05T23:53:23.553Z,15.57
2022-10-05T23:55:53.934Z,17.77
2022-10-05T23:58:22.266Z,19.00
